createdAt,value
2019-05-12T00:00:31.782Z,14.10
2019-05-12T00:03:00.697Z,14.20
2019-05-12T00:05:30.430Z,14.20
2019-05-12T00:07:59.330Z,14.20
2019-05-12T00:10:28.456Z,14.20
2019-05-12T00:12:58.275Z,14.20
2019-05-12T00:15:28.070Z,14.20
2019-05-12T00:17:58.664Z,14.30
2019-05-12T00:20:28.408Z,14.30
2019-05-12T00:22:59.142Z,14.20
2019-05-12T00:25:28.418Z,14.10
2019-05-12T00:27:58.588Z,14.00
2019-05-12T00:30:38.858Z,14.00
2019-05-12T00:33:09.232Z,14.10
2019-05-12T00:35:38.751Z,14.10
2019-05-12T00:38:09.028Z,14.20
2019-05-12T00:40:39.381Z,14.20
2019-05-12T00:43:09.317Z,14.20
2019-05-12T00:45:39.255Z,14.30
2019-05-12T00:48:09.758Z,14.20
2019-05-12T00:50:39.089Z,14.30
2019-05-12T00:53:08.989Z,14.50
2019-05-12T00:55:38.643Z,14.50
2019-05-12T00:58:08.806Z,14.40
2019-05-12T01:00:40.526Z,14.40
2019-05-12T01:03:09.137Z,14.40
2019-05-12T01:05:38.682Z,14.50
2019-05-12T01:08:09.045Z,14.50
2019-05-12T01:10:39.122Z,14.50
2019-05-12T01:13:08.955Z,14.50
2019-05-12T01:15:38.331Z,14.40
2019-05-12T01:18:09.300Z,14.50
2019-05-12T01:20:39.097Z,14.50
2019-05-12T01:23:08.655Z,14.50
2019-05-12T01:25:39.596Z,14.50
2019-05-12T01:28:08.659Z,14.50
2019-05-12T01:30:39.078Z,14.40
2019-05-12T01:33:09.689Z,14.40
2019-05-12T01:35:39.255Z,14.40
2019-05-12T01:38:08.501Z,14.40
2019-05-12T01:40:39.338Z,14.30
2019-05-12T01:43:08.846Z,14.30
2019-05-12T01:45:38.229Z,14.20
2019-05-12T01:48:08.781Z,14.10
2019-05-12T01:50:38.791Z,14.10
2019-05-12T01:53:08.465Z,14.10
2019-05-12T01:55:38.843Z,14.20
2019-05-12T01:58:08.727Z,14.10
2019-05-12T02:00:39.241Z,14.00
2019-05-12T02:03:09.479Z,14.00
2019-05-12T02:05:40.254Z,14.20
2019-05-12T02:08:10.902Z,14.50
2019-05-12T02:10:39.930Z,15.30
2019-05-12T02:13:08.974Z,15.20
2019-05-12T02:15:38.486Z,14.70
2019-05-12T02:18:09.060Z,14.30
2019-05-12T02:20:38.467Z,14.00
2019-05-12T02:23:09.264Z,13.80
2019-05-12T02:25:38.524Z,13.50
2019-05-12T02:28:09.131Z,13.20
2019-05-12T02:30:41.613Z,13.10
2019-05-12T02:33:10.120Z,13.10
2019-05-12T02:35:40.102Z,12.90
2019-05-12T02:38:09.108Z,12.70
2019-05-12T02:40:38.006Z,12.60
2019-05-12T02:43:07.153Z,12.50
2019-05-12T02:45:36.262Z,12.60
2019-05-12T02:48:06.741Z,12.80
2019-05-12T02:50:37.492Z,12.50
2019-05-12T02:53:07.465Z,12.50
2019-05-12T02:55:37.242Z,12.40
2019-05-12T02:58:07.843Z,12.40
2019-05-12T03:00:37.180Z,12.40
2019-05-12T03:03:14.424Z,12.50
2019-05-12T03:05:44.502Z,12.50
2019-05-12T03:08:15.693Z,12.70
2019-05-12T03:10:47.930Z,12.90
2019-05-12T03:13:16.874Z,12.90
2019-05-12T03:15:45.927Z,13.00
2019-05-12T03:18:14.920Z,13.00
2019-05-12T03:20:45.738Z,13.00
2019-05-12T03:23:18.521Z,13.00
2019-05-12T03:25:45.775Z,12.90
2019-05-12T03:28:16.001Z,12.80
2019-05-12T03:30:48.197Z,12.80
2019-05-12T03:33:19.568Z,12.80
2019-05-12T03:35:52.924Z,12.50
2019-05-12T03:38:17.202Z,12.30
2019-05-12T03:40:46.162Z,12.20
2019-05-12T03:43:15.248Z,12.10
2019-05-12T03:45:45.205Z,12.10
2019-05-12T03:48:15.056Z,12.10
2019-05-12T03:50:46.184Z,12.20
2019-05-12T03:53:15.826Z,12.40
2019-05-12T03:55:46.958Z,12.60
2019-05-12T03:58:16.057Z,12.80
2019-05-12T04:00:45.251Z,13.10
2019-05-12T04:03:15.627Z,13.30
2019-05-12T04:05:45.893Z,13.50
2019-05-12T04:08:16.415Z,13.60
2019-05-12T04:10:45.713Z,13.60
2019-05-12T04:13:15.425Z,13.60
2019-05-12T04:15:45.480Z,13.60
2019-05-12T04:18:15.885Z,13.70
2019-05-12T04:20:45.619Z,13.80
2019-05-12T04:23:15.597Z,13.90
2019-05-12T04:25:52.107Z,13.80
2019-05-12T04:28:16.804Z,13.90
2019-05-12T04:30:45.772Z,13.80
2019-05-12T04:33:17.578Z,13.70
2019-05-12T04:35:46.440Z,13.60
2019-05-12T04:38:15.496Z,13.50
2019-05-12T04:40:45.254Z,13.50
2019-05-12T04:43:16.356Z,13.50
2019-05-12T04:45:48.019Z,13.40
2019-05-12T04:48:21.314Z,13.40
2019-05-12T04:50:48.011Z,13.40
2019-05-12T04:53:17.075Z,13.30
2019-05-12T04:56:04.533Z,13.40
2019-05-12T04:58:16.809Z,13.50
2019-05-12T05:00:45.759Z,13.50
2019-05-12T05:03:14.793Z,13.50
2019-05-12T05:05:44.399Z,13.50
2019-05-12T05:08:16.855Z,13.40
2019-05-12T05:10:44.474Z,13.40
2019-05-12T05:13:14.995Z,13.30
2019-05-12T05:15:44.771Z,13.40
2019-05-12T05:18:13.912Z,13.40
2019-05-12T05:20:43.856Z,13.30
2019-05-12T05:23:14.214Z,13.30
2019-05-12T05:25:43.585Z,13.60
2019-05-12T05:28:14.582Z,13.80
2019-05-12T05:30:44.082Z,13.90
2019-05-12T05:33:14.457Z,13.70
2019-05-12T05:38:18.686Z,13.20
2019-05-12T05:40:44.043Z,13.20
2019-05-12T05:43:18.327Z,13.20
2019-05-12T05:45:45.092Z,13.20
2019-05-12T05:48:13.965Z,13.10
2019-05-12T05:50:48.335Z,13.10
2019-05-12T05:53:19.517Z,13.20
2019-05-12T05:55:53.561Z,13.30
2019-05-12T05:58:18.263Z,13.40
2019-05-12T06:00:47.045Z,13.40
2019-05-12T06:03:23.429Z,13.40
2019-05-12T06:05:46.453Z,13.40
2019-05-12T06:08:20.598Z,13.30
2019-05-12T06:10:46.209Z,13.40
2019-05-12T06:13:15.029Z,13.40
2019-05-12T06:15:46.400Z,13.30
2019-05-12T06:18:15.169Z,13.20
2019-05-12T06:20:44.040Z,13.00
2019-05-12T06:23:14.736Z,13.00
2019-05-12T06:25:49.412Z,13.20
2019-05-12T06:28:14.529Z,13.10
2019-05-12T06:30:46.636Z,12.90
2019-05-12T06:33:14.487Z,12.70
2019-05-12T06:35:45.505Z,12.50
2019-05-12T06:38:15.471Z,12.40
2019-05-12T06:40:45.418Z,12.40
2019-05-12T06:43:14.414Z,12.30
2019-05-12T06:45:45.596Z,12.20
2019-05-12T06:48:14.155Z,12.20
2019-05-12T06:50:44.181Z,12.10
2019-05-12T06:53:13.927Z,12.10
2019-05-12T06:55:43.313Z,12.10
2019-05-12T06:58:13.996Z,12.10
2019-05-12T07:00:43.807Z,12.20
2019-05-12T07:03:14.281Z,12.20
2019-05-12T07:05:45.308Z,12.20
2019-05-12T07:08:20.123Z,12.20
2019-05-12T07:10:46.859Z,12.10
2019-05-12T07:13:24.870Z,12.10
2019-05-12T07:15:46.709Z,12.20
2019-05-12T07:18:17.755Z,12.30
2019-05-12T07:20:53.790Z,12.30
2019-05-12T07:23:25.784Z,12.40
2019-05-12T07:25:55.001Z,12.50
2019-05-12T07:28:23.848Z,12.60
2019-05-12T07:30:54.549Z,12.60
2019-05-12T07:33:25.077Z,12.70
2019-05-12T07:36:00.940Z,12.70
2019-05-12T07:38:26.321Z,12.80
2019-05-12T07:41:00.564Z,12.80
2019-05-12T07:43:28.430Z,12.90
2019-05-12T07:46:02.486Z,13.10
2019-05-12T07:48:29.607Z,13.30
2019-05-12T07:51:00.525Z,13.30
2019-05-12T07:53:28.895Z,13.60
2019-05-12T07:55:57.644Z,13.70
2019-05-12T07:58:26.411Z,13.80
2019-05-12T08:01:02.471Z,13.70
2019-05-12T08:03:25.580Z,13.80
2019-05-12T08:05:59.805Z,13.90
2019-05-12T08:08:24.752Z,13.90
2019-05-12T08:10:55.849Z,14.00
2019-05-12T08:13:23.980Z,14.10
2019-05-12T08:15:55.667Z,14.10
2019-05-12T08:18:24.613Z,14.10
2019-05-12T08:20:54.440Z,14.20
2019-05-12T08:23:23.540Z,14.00
2019-05-12T08:25:54.019Z,13.60
2019-05-12T08:28:25.703Z,13.60
2019-05-12T08:30:54.990Z,13.70
2019-05-12T08:33:24.965Z,13.80
2019-05-12T08:35:55.346Z,13.80
2019-05-12T08:38:25.947Z,13.70
2019-05-12T08:40:54.870Z,13.40
2019-05-12T08:43:24.053Z,13.40
2019-05-12T08:45:53.590Z,13.50
2019-05-12T08:48:24.980Z,13.60
2019-05-12T08:50:54.535Z,13.60
2019-05-12T08:53:25.870Z,13.50
2019-05-12T08:55:54.098Z,13.40
2019-05-12T08:58:31.346Z,13.30
2019-05-12T09:00:54.931Z,13.30
2019-05-12T09:03:27.108Z,13.30
2019-05-12T09:05:55.606Z,13.20
2019-05-12T09:08:24.516Z,13.20
2019-05-12T09:10:55.517Z,13.10
2019-05-12T09:13:23.689Z,13.10
2019-05-12T09:15:54.175Z,13.00
2019-05-12T09:18:28.328Z,13.10
2019-05-12T09:20:55.724Z,13.00
2019-05-12T09:23:24.068Z,12.90
2019-05-12T09:25:53.765Z,12.80
2019-05-12T09:28:23.975Z,12.80
2019-05-12T09:30:54.372Z,12.90
2019-05-12T09:33:27.510Z,13.10
2019-05-12T09:35:54.012Z,13.20
2019-05-12T09:38:25.799Z,13.30
2019-05-12T09:41:00.727Z,13.20
2019-05-12T09:43:24.088Z,13.20
2019-05-12T09:45:56.355Z,13.20
2019-05-12T09:48:24.724Z,13.20
2019-05-12T09:51:00.407Z,13.10
2019-05-12T09:53:24.183Z,13.00
2019-05-12T09:55:53.943Z,13.10
2019-05-12T09:58:25.096Z,13.30
2019-05-12T10:00:54.300Z,13.40
2019-05-12T10:03:24.237Z,13.30
2019-05-12T10:05:53.733Z,13.30
2019-05-12T10:08:24.293Z,13.30
2019-05-12T10:10:53.565Z,13.30
2019-05-12T10:13:28.115Z,13.20
2019-05-12T10:15:53.615Z,13.30
2019-05-12T10:18:24.349Z,13.50
2019-05-12T10:20:53.521Z,13.50
2019-05-12T10:23:25.159Z,13.50
2019-05-12T10:25:53.811Z,13.50
2019-05-12T10:28:23.871Z,13.70
2019-05-12T10:30:56.805Z,14.00
2019-05-12T10:33:23.266Z,14.20
2019-05-12T10:35:59.319Z,14.20
2019-05-12T10:38:25.049Z,13.90
2019-05-12T10:40:53.884Z,13.70
2019-05-12T10:43:23.656Z,13.60
2019-05-12T10:45:53.862Z,13.70
2019-05-12T10:48:23.804Z,13.70
2019-05-12T10:50:53.597Z,13.70
2019-05-12T10:53:23.536Z,13.80
2019-05-12T10:55:54.272Z,13.60
2019-05-12T10:58:24.449Z,13.40
2019-05-12T11:00:53.717Z,13.20
2019-05-12T11:03:24.419Z,13.20
2019-05-12T11:05:56.670Z,13.50
2019-05-12T11:08:24.744Z,13.80
2019-05-12T11:10:57.694Z,13.80
2019-05-12T11:13:25.135Z,13.80
2019-05-12T11:15:54.570Z,13.50
2019-05-12T11:18:26.084Z,13.40
2019-05-12T11:20:54.495Z,13.30
2019-05-12T11:23:24.405Z,13.10
2019-05-12T11:25:53.533Z,13.20
2019-05-12T11:28:24.287Z,13.30
2019-05-12T11:30:52.816Z,13.50
2019-05-12T11:33:23.652Z,13.50
2019-05-12T11:35:54.166Z,13.70
2019-05-12T11:38:24.443Z,13.60
2019-05-12T11:40:53.815Z,13.60
2019-05-12T11:43:24.823Z,13.60
2019-05-12T11:45:53.533Z,13.60
2019-05-12T11:48:23.623Z,13.60
2019-05-12T11:50:54.499Z,13.90
2019-05-12T11:53:30.253Z,14.10
2019-05-12T11:55:54.759Z,13.90
2019-05-12T11:58:23.746Z,13.90
2019-05-12T12:00:58.781Z,13.80
2019-05-12T12:03:24.651Z,13.70
2019-05-12T12:05:53.891Z,13.50
2019-05-12T12:08:26.339Z,13.60
2019-05-12T12:10:54.105Z,13.80
2019-05-12T12:13:25.691Z,14.10
2019-05-12T12:15:53.552Z,14.20
2019-05-12T12:18:23.588Z,14.40
2019-05-12T12:20:55.077Z,14.50
2019-05-12T12:23:23.316Z,14.60
2019-05-12T12:25:53.457Z,14.70
2019-05-12T12:28:24.143Z,14.80
2019-05-12T12:30:56.822Z,14.80
2019-05-12T12:33:23.557Z,14.80
2019-05-12T12:35:56.752Z,14.80
2019-05-12T12:38:23.983Z,14.80
2019-05-12T12:40:53.606Z,14.80
2019-05-12T12:43:24.661Z,14.90
2019-05-12T12:45:56.916Z,14.90
2019-05-12T12:48:29.692Z,15.10
2019-05-12T12:50:56.870Z,15.30
2019-05-12T12:53:27.530Z,15.40
2019-05-12T12:55:58.786Z,15.80
2019-05-12T12:58:31.342Z,16.40
2019-05-12T13:00:58.217Z,16.60
2019-05-12T13:03:29.768Z,16.90
2019-05-12T13:05:57.268Z,17.20
2019-05-12T13:08:26.017Z,17.10
2019-05-12T13:10:54.833Z,17.30
2019-05-12T13:13:24.592Z,17.30
2019-05-12T13:15:53.591Z,17.20
2019-05-12T13:18:24.740Z,17.00
2019-05-12T13:20:54.007Z,16.90
2019-05-12T13:23:34.678Z,17.00
2019-05-12T13:25:54.649Z,17.00
2019-05-12T13:28:25.919Z,17.20
2019-05-12T13:31:07.359Z,17.30
2019-05-12T13:33:24.581Z,17.10
2019-05-12T13:35:55.572Z,16.70
2019-05-12T13:38:24.000Z,16.50
2019-05-12T13:40:53.996Z,16.30
2019-05-12T13:43:24.273Z,16.10
2019-05-12T13:45:53.943Z,16.00
2019-05-12T13:48:23.993Z,15.90
2019-05-12T13:50:59.881Z,16.10
2019-05-12T13:53:24.446Z,16.00
2019-05-12T13:55:54.364Z,15.80
2019-05-12T13:58:23.259Z,15.80
2019-05-12T14:01:10.513Z,15.80
2019-05-12T14:03:22.452Z,15.80
2019-05-12T14:05:52.911Z,15.80
2019-05-12T14:08:23.787Z,15.80
2019-05-12T14:10:59.513Z,15.80
2019-05-12T14:13:24.740Z,15.90
2019-05-12T14:15:53.865Z,15.90
2019-05-12T14:18:22.683Z,16.00
2019-05-12T14:23:57.966Z,15.90
2019-05-12T14:26:27.135Z,15.90
2019-05-12T14:28:56.542Z,16.00
2019-05-12T14:31:35.122Z,16.00
2019-05-12T14:34:04.295Z,15.90
2019-05-12T14:36:33.572Z,15.80
2019-05-12T14:39:06.192Z,15.80
2019-05-12T14:41:35.578Z,15.80
2019-05-12T14:44:04.761Z,15.80
2019-05-12T14:46:40.171Z,15.80
2019-05-12T14:49:06.713Z,15.80
2019-05-12T14:51:35.644Z,15.80
2019-05-12T14:54:08.757Z,15.80
2019-05-12T14:56:37.766Z,15.80
2019-05-12T14:59:06.952Z,15.80
2019-05-12T15:01:51.601Z,15.80
2019-05-12T15:04:06.466Z,15.80
2019-05-12T15:06:35.454Z,15.90
2019-05-12T15:09:11.513Z,15.90
2019-05-12T15:11:36.976Z,15.90
2019-05-12T15:14:06.019Z,15.90
2019-05-12T15:16:40.316Z,16.00
2019-05-12T15:19:05.566Z,16.00
2019-05-12T15:21:34.432Z,16.00
2019-05-12T15:24:03.921Z,16.00
2019-05-12T15:26:33.001Z,15.90
2019-05-12T15:29:10.483Z,15.90
2019-05-12T15:31:36.240Z,16.00
2019-05-12T15:34:05.205Z,15.90
2019-05-12T15:36:34.138Z,15.70
2019-05-12T15:39:06.779Z,15.70
2019-05-12T15:41:35.208Z,15.70
2019-05-12T15:44:06.487Z,15.70
2019-05-12T15:46:40.945Z,15.70
2019-05-12T15:49:08.485Z,15.70
2019-05-12T15:51:39.244Z,15.60
2019-05-12T15:54:11.676Z,15.60
2019-05-12T15:56:38.412Z,15.50
2019-05-12T15:59:07.363Z,15.40
2019-05-12T16:01:36.334Z,15.30
2019-05-12T16:04:05.335Z,15.30
2019-05-12T16:06:34.284Z,15.30
2019-05-12T16:09:03.975Z,15.30
2019-05-12T16:11:35.855Z,15.40
2019-05-12T16:14:04.855Z,15.50
2019-05-12T16:16:42.229Z,15.80
2019-05-12T16:19:04.604Z,15.90
2019-05-12T16:21:37.954Z,16.00
2019-05-12T16:24:10.861Z,16.20
2019-05-12T16:26:35.566Z,16.40
2019-05-12T16:29:07.386Z,16.30
2019-05-12T16:31:39.568Z,16.40
2019-05-12T16:34:06.320Z,16.90
2019-05-12T16:36:35.314Z,17.10
2019-05-12T16:39:07.732Z,17.00
2019-05-12T16:41:36.827Z,16.80
2019-05-12T16:44:16.034Z,16.70
2019-05-12T16:46:37.720Z,16.80
2019-05-12T16:49:07.798Z,16.80
2019-05-12T16:51:36.731Z,16.70
2019-05-12T16:54:25.402Z,16.60
2019-05-12T16:57:00.192Z,16.70
2019-05-12T16:59:30.219Z,16.80
2019-05-12T17:02:18.454Z,16.90
2019-05-12T17:04:42.974Z,16.80
2019-05-12T17:07:18.951Z,16.90
2019-05-12T17:09:44.356Z,16.80
2019-05-12T17:12:14.737Z,16.80
2019-05-12T17:14:49.842Z,16.90
2019-05-12T17:17:21.012Z,16.90
2019-05-12T17:19:47.854Z,16.90
2019-05-12T17:22:17.671Z,16.70
2019-05-12T17:24:47.425Z,16.60
2019-05-12T17:27:23.988Z,16.50
2019-05-12T17:29:47.237Z,16.60
2019-05-12T17:32:16.345Z,16.60
2019-05-12T17:34:48.258Z,16.60
2019-05-12T17:37:17.878Z,16.40
2019-05-12T17:39:46.785Z,16.40
2019-05-12T17:42:21.748Z,16.30
2019-05-12T17:44:47.445Z,16.30
2019-05-12T17:47:21.423Z,16.40
2019-05-12T17:49:47.393Z,16.40
2019-05-12T17:52:18.618Z,16.50
2019-05-12T17:54:47.047Z,16.60
2019-05-12T17:57:19.941Z,16.70
2019-05-12T17:59:46.589Z,16.70
2019-05-12T18:02:16.982Z,16.60
2019-05-12T18:04:45.955Z,16.50
2019-05-12T18:07:19.286Z,16.70
2019-05-12T18:09:50.384Z,16.80
2019-05-12T18:12:16.158Z,16.70
2019-05-12T18:14:51.738Z,16.60
2019-05-12T18:17:15.824Z,16.70
2019-05-12T18:19:44.856Z,16.70
2019-05-12T18:22:14.265Z,16.50
2019-05-12T18:24:49.359Z,16.40
2019-05-12T18:27:16.585Z,16.50
2019-05-12T18:29:45.565Z,16.40
2019-05-12T18:32:14.489Z,16.40
2019-05-12T18:34:45.111Z,16.40
2019-05-12T18:37:23.927Z,16.40
2019-05-12T18:39:59.379Z,16.40
2019-05-12T18:42:29.685Z,16.40
2019-05-12T18:45:04.596Z,16.50
2019-05-12T18:47:36.362Z,16.60
2019-05-12T18:50:10.527Z,16.60
2019-05-12T18:52:45.442Z,16.60
2019-05-12T18:55:17.827Z,16.60
2019-05-12T18:57:54.489Z,16.60
2019-05-12T19:03:44.015Z,16.70
2019-05-12T19:06:29.419Z,16.80
2019-05-12T19:08:49.945Z,16.70
2019-05-12T19:11:23.063Z,16.70
2019-05-12T19:13:56.989Z,16.70
2019-05-12T19:16:23.999Z,16.50
2019-05-12T19:18:55.386Z,16.40
2019-05-12T19:21:38.221Z,16.50
2019-05-12T19:24:17.484Z,16.60
2019-05-12T19:26:40.870Z,16.70
2019-05-12T19:29:29.621Z,16.70
2019-05-12T19:32:00.258Z,16.70
2019-05-12T19:34:35.219Z,16.80
2019-05-12T19:36:59.981Z,16.80
2019-05-12T19:39:31.110Z,16.60
2019-05-12T19:42:03.609Z,16.70
2019-05-12T19:47:36.255Z,16.70
2019-05-12T19:49:59.719Z,16.70
2019-05-12T19:52:29.726Z,16.70
2019-05-12T19:55:03.691Z,16.80
2019-05-12T19:57:33.527Z,16.90
2019-05-12T20:00:04.546Z,16.90
2019-05-12T20:02:34.203Z,16.90
2019-05-12T20:05:04.580Z,16.90
2019-05-12T20:07:33.983Z,17.10
2019-05-12T20:10:04.615Z,17.30
2019-05-12T20:12:34.420Z,17.20
2019-05-12T20:15:04.340Z,17.20
2019-05-12T20:17:35.003Z,17.20
2019-05-12T20:20:04.869Z,17.20
2019-05-12T20:22:33.906Z,17.30
2019-05-12T20:25:04.355Z,17.20
2019-05-12T20:27:34.543Z,17.20
2019-05-12T20:30:15.358Z,17.30
2019-05-12T20:32:37.075Z,17.30
2019-05-12T20:35:06.022Z,17.40
2019-05-12T20:37:35.009Z,17.40
2019-05-12T20:40:06.224Z,17.30
2019-05-12T20:42:42.207Z,17.20
2019-05-12T20:45:08.019Z,17.20
2019-05-12T20:47:38.927Z,17.30
2019-05-12T20:50:07.506Z,17.40
2019-05-12T20:52:39.547Z,17.50
2019-05-12T20:55:06.924Z,17.50
2019-05-12T20:57:40.086Z,17.60
2019-05-12T21:00:08.707Z,17.50
2019-05-12T21:02:37.649Z,17.40
2019-05-12T21:05:14.567Z,17.40
2019-05-12T21:07:38.240Z,17.20
2019-05-12T21:10:08.278Z,17.00
2019-05-12T21:12:40.102Z,17.00
2019-05-12T21:15:16.552Z,16.90
2019-05-12T21:17:42.610Z,17.00
2019-05-12T21:20:11.837Z,17.00
2019-05-12T21:22:39.486Z,16.80
2019-05-12T21:25:11.132Z,16.80
2019-05-12T21:27:39.656Z,16.90
2019-05-12T21:30:14.957Z,16.70
2019-05-12T21:32:47.323Z,16.50
2019-05-12T21:35:19.130Z,16.30
2019-05-12T21:37:46.115Z,16.10
2019-05-12T21:40:15.183Z,15.90
2019-05-12T21:42:45.779Z,15.90
2019-05-12T21:45:14.880Z,15.90
2019-05-12T21:47:44.597Z,16.00
2019-05-12T21:50:14.402Z,16.30
2019-05-12T21:52:44.767Z,16.40
2019-05-12T21:55:21.662Z,16.70
2019-05-12T21:57:45.749Z,17.00
2019-05-12T22:00:23.729Z,17.00
2019-05-12T22:02:53.431Z,17.10
2019-05-12T22:05:45.459Z,17.20
2019-05-12T22:07:55.060Z,17.30
2019-05-12T22:10:31.671Z,17.40
2019-05-12T22:13:06.909Z,17.40
2019-05-12T22:15:59.595Z,17.40
2019-05-12T22:18:30.542Z,17.40
2019-05-12T22:21:06.626Z,17.30
2019-05-12T22:23:34.090Z,17.40
2019-05-12T22:26:04.479Z,17.40
2019-05-12T22:28:34.307Z,17.20
2019-05-12T22:31:03.950Z,17.00
2019-05-12T22:33:33.560Z,16.80
2019-05-12T22:36:14.067Z,16.60
2019-05-12T22:38:35.974Z,16.50
2019-05-12T22:41:04.959Z,16.40
2019-05-12T22:43:41.325Z,16.30
2019-05-12T22:46:13.215Z,16.10
2019-05-12T22:54:10.811Z,16.00
2019-05-12T22:56:44.062Z,16.00
2019-05-12T22:59:13.823Z,16.00
2019-05-12T23:01:46.849Z,15.80
2019-05-12T23:04:19.541Z,16.00
2019-05-12T23:06:48.953Z,16.00
2019-05-12T23:09:19.521Z,15.90
2019-05-12T23:11:50.123Z,15.90
2019-05-12T23:14:22.392Z,16.10
2019-05-12T23:16:50.419Z,16.20
2019-05-12T23:19:23.534Z,16.40
2019-05-12T23:21:55.497Z,16.30
2019-05-12T23:24:30.379Z,16.30
2019-05-12T23:26:58.466Z,16.20
2019-05-12T23:29:30.978Z,16.10
2019-05-12T23:35:04.722Z,16.30
2019-05-12T23:37:58.700Z,16.20
2019-05-12T23:43:25.447Z,15.90
2019-05-12T23:45:57.009Z,15.90
2019-05-12T23:48:28.422Z,15.80
2019-05-12T23:50:58.497Z,15.80
2019-05-12T23:53:27.569Z,15.80
2019-05-12T23:55:57.557Z,15.80
2019-05-12T23:58:26.589Z,15.70
